Portada
METAR-TAF:

METAR-TAF

Aeroports :

Imphal, Índia

latitud: 24-45-36N, longitud: 93-53-48E, altitud: 774 m

Observació

L'informe es va fer fa 4 hores i 12 minuts, a les 12:00 UTC
Vent 9 kt del Oest
Temperatura 18°C
Humitat 52%
Pressió 1015 hPa
Visibilitat: 4500 m
Núvols disperses a una alçada de 1800 ft
calitja

METAR: VEIM 181200Z 27009KT 4500 HZ SCT018 18/08 Q1015 NOSIG

Hora: 21:42 (16:12 UTC)

Pronòstic

L'informe es va fer fa 5 hores i 12 minuts, a les 11:00 UTC
Pronòstic vàlid del 18 a les 12 UTC al 18 a les 21 UTC
Vent 6 kt del Oest/Sud-Oest
Visibilitat: 2500 m
Escasses núvols a una alçada de 1800 ft
Núvols disperses a una alçada de 10000 ft
calitja
Evolucionant progressivament
l' 18 a les 15 UTC al 18 a les 17 UTC
Vent 5 kt del Sud-Oest
Visibilitat: 1500 m
Núvols disperses a una alçada de 1800 ft
Cel ennuvolat a una alçada de 10000 ft
boirina

TAF: VEIM 181100Z 1812/1821 25006KT 2500 HZ FEW018 SCT100 BECMG 1815/1817 23005KT 1500 BR SCT018 BKN100

Observacions i pronòstics meteorològics de més de 4000 aeroports (METAR i TAF).

Les estacions disponibles són els punts grocs i vermells al mapa.

Posi el ratolí al punt desitjat per veure el nom de l'estació.

Feu clic per veure les observacions i els pronòstics meteorològics.

Per canviar el mapa: feu clic els botons verds amb una creu de color negre per apropar; al botó verd amb un guió per allunyar la imatge; o en les fletxes verdes per a mapes adjacents.


METAR-TAF: